CBY01 VTUU-VTUK
Flight info
| Callsign | CBY01 |
|---|---|
| Flight time | 0h 40m |
| Altitude | 12000 |
| Route | ROT W5 KKN |
| Aircraft | AT76/M-SDFGIRY/S |
Departure
| Time | 2026-05-05 12:10 |
|---|---|
| Airport | Ubon Ratchathani Airport (VTUU) |
Arrival
| Time | 2026-05-05 12:50 |
|---|---|
| Airport | Khon Kaen Airport (VTUK) |
| Time | Latitude | Longitude | Altitude | Speed | Heading |
|---|---|---|---|---|---|
| 2026-05-05 11:58 | 15.24996 | 104.86268 | 403 ft | 0 kts | 51° |
| 2026-05-05 12:01 | 15.24999 | 104.86273 | 403 ft | 1 kts | 54° |
| 2026-05-05 12:02 | 15.25000 | 104.86279 | 403 ft | 3 kts | 75° |
| 2026-05-05 12:02 | 15.24993 | 104.86322 | 403 ft | 9 kts | 118° |
| 2026-05-05 12:02 | 15.24951 | 104.86368 | 403 ft | 0 kts | 142° |
| 2026-05-05 12:03 | 15.24946 | 104.86372 | 403 ft | 4 kts | 142° |
| 2026-05-05 12:03 | 15.24929 | 104.86396 | 403 ft | 4 kts | 106° |
| 2026-05-05 12:03 | 15.24934 | 104.86426 | 403 ft | 5 kts | 67° |
| 2026-05-05 12:04 | 15.24952 | 104.86450 | 403 ft | 4 kts | 52° |
| 2026-05-05 12:04 | 15.24978 | 104.86484 | 403 ft | 8 kts | 52° |
| 2026-05-05 12:04 | 15.25023 | 104.86543 | 403 ft | 11 kts | 51° |
| 2026-05-05 12:04 | 15.25020 | 104.86601 | 403 ft | 8 kts | 133° |
| 2026-05-05 12:05 | 15.24971 | 104.86641 | 403 ft | 10 kts | 142° |
| 2026-05-05 12:05 | 15.24911 | 104.86690 | 403 ft | 11 kts | 140° |
| 2026-05-05 12:05 | 15.24906 | 104.86742 | 406 ft | 7 kts | 65° |
| 2026-05-05 12:05 | 15.24955 | 104.86813 | 405 ft | 17 kts | 50° |
| 2026-05-05 12:06 | 15.25050 | 104.86936 | 404 ft | 26 kts | 51° |
| 2026-05-05 12:06 | 15.25175 | 104.87099 | 404 ft | 32 kts | 51° |
| 2026-05-05 12:06 | 15.25293 | 104.87253 | 402 ft | 23 kts | 51° |
| 2026-05-05 12:06 | 15.25377 | 104.87361 | 405 ft | 16 kts | 51° |
| 2026-05-05 12:07 | 15.25444 | 104.87447 | 404 ft | 17 kts | 53° |
| 2026-05-05 12:07 | 15.25543 | 104.87574 | 403 ft | 31 kts | 51° |
| 2026-05-05 12:07 | 15.25702 | 104.87782 | 402 ft | 34 kts | 51° |
| 2026-05-05 12:07 | 15.25825 | 104.87940 | 401 ft | 24 kts | 51° |
| 2026-05-05 12:08 | 15.25885 | 104.88075 | 402 ft | 17 kts | 72° |
| 2026-05-05 12:08 | 15.25946 | 104.88103 | 400 ft | 1 kts | 292° |
| 2026-05-05 12:08 | 15.25944 | 104.88092 | 400 ft | 2 kts | 253° |
| 2026-05-05 12:08 | 15.25932 | 104.88075 | 400 ft | 5 kts | 233° |
| 2026-05-05 12:09 | 15.25897 | 104.88031 | 400 ft | 21 kts | 232° |
| 2026-05-05 12:09 | 15.25702 | 104.87776 | 402 ft | 69 kts | 231° |
| 2026-05-05 12:09 | 15.25291 | 104.87249 | 404 ft | 117 kts | 232° |
| 2026-05-05 12:09 | 15.24708 | 104.86493 | 529 ft | 144 kts | 233° |
| 2026-05-05 12:10 | 15.24079 | 104.85680 | 1038 ft | 141 kts | 230° |
| 2026-05-05 12:10 | 15.23380 | 104.84892 | 1350 ft | 158 kts | 230° |
| 2026-05-05 12:10 | 15.22635 | 104.83974 | 1660 ft | 173 kts | 232° |
| 2026-05-05 12:10 | 15.21850 | 104.82966 | 1960 ft | 187 kts | 232° |
| 2026-05-05 12:11 | 15.21234 | 104.81774 | 2284 ft | 194 kts | 264° |
| 2026-05-05 12:11 | 15.21566 | 104.80434 | 2620 ft | 199 kts | 308° |
| 2026-05-05 12:11 | 15.22641 | 104.79577 | 2925 ft | 196 kts | 329° |
| 2026-05-05 12:11 | 15.23815 | 104.78873 | 3263 ft | 195 kts | 332° |
| 2026-05-05 12:12 | 15.24989 | 104.78174 | 3574 ft | 195 kts | 328° |
| 2026-05-05 12:12 | 15.26104 | 104.77384 | 3883 ft | 194 kts | 323° |
| 2026-05-05 12:12 | 15.27140 | 104.76494 | 4194 ft | 193 kts | 319° |
| 2026-05-05 12:12 | 15.28096 | 104.75521 | 4514 ft | 192 kts | 314° |
| 2026-05-05 12:13 | 15.28989 | 104.74496 | 4821 ft | 191 kts | 312° |
| 2026-05-05 12:13 | 15.29855 | 104.73454 | 5126 ft | 190 kts | 311° |
| 2026-05-05 12:13 | 15.30711 | 104.72409 | 5416 ft | 190 kts | 311° |
| 2026-05-05 12:13 | 15.31565 | 104.71387 | 5692 ft | 190 kts | 312° |
| 2026-05-05 12:14 | 15.32438 | 104.70355 | 5968 ft | 191 kts | 313° |
| 2026-05-05 12:14 | 15.33324 | 104.69323 | 6239 ft | 192 kts | 313° |
| 2026-05-05 12:14 | 15.34213 | 104.68289 | 6479 ft | 193 kts | 313° |
| 2026-05-05 12:14 | 15.35105 | 104.67242 | 6744 ft | 194 kts | 313° |
| 2026-05-05 12:15 | 15.36001 | 104.66192 | 6993 ft | 195 kts | 313° |
| 2026-05-05 12:15 | 15.36903 | 104.65137 | 7242 ft | 196 kts | 313° |
| 2026-05-05 12:15 | 15.37809 | 104.64077 | 7493 ft | 197 kts | 312° |
| 2026-05-05 12:15 | 15.38721 | 104.63010 | 7735 ft | 198 kts | 313° |
| 2026-05-05 12:16 | 15.39637 | 104.61942 | 7983 ft | 199 kts | 313° |
| 2026-05-05 12:16 | 15.40556 | 104.60865 | 8212 ft | 200 kts | 313° |
| 2026-05-05 12:16 | 15.41480 | 104.59783 | 8462 ft | 201 kts | 313° |
| 2026-05-05 12:16 | 15.42408 | 104.58698 | 8710 ft | 202 kts | 313° |
| 2026-05-05 12:17 | 15.43340 | 104.57607 | 8950 ft | 203 kts | 313° |
| 2026-05-05 12:17 | 15.44276 | 104.56512 | 9187 ft | 203 kts | 313° |
| 2026-05-05 12:17 | 15.45215 | 104.55413 | 9431 ft | 204 kts | 313° |
| 2026-05-05 12:17 | 15.45910 | 104.54155 | 9038 ft | 214 kts | 264° |
| 2026-05-05 12:18 | 15.45837 | 104.52501 | 8795 ft | 224 kts | 275° |
| 2026-05-05 12:18 | 15.46300 | 104.51048 | 9278 ft | 209 kts | 310° |
| 2026-05-05 12:18 | 15.47422 | 104.50148 | 9588 ft | 204 kts | 329° |
| 2026-05-05 12:18 | 15.48634 | 104.49382 | 9818 ft | 205 kts | 330° |
| 2026-05-05 12:19 | 15.49849 | 104.48607 | 10034 ft | 205 kts | 328° |
| 2026-05-05 12:19 | 15.51030 | 104.47776 | 10235 ft | 206 kts | 326° |
| 2026-05-05 12:19 | 15.52186 | 104.46888 | 10464 ft | 207 kts | 322° |
| 2026-05-05 12:19 | 15.53281 | 104.45913 | 10668 ft | 208 kts | 317° |
| 2026-05-05 12:20 | 15.54305 | 104.44857 | 10871 ft | 208 kts | 313° |
| 2026-05-05 12:20 | 15.55272 | 104.43740 | 11083 ft | 209 kts | 311° |
| 2026-05-05 12:20 | 15.56222 | 104.42601 | 11291 ft | 209 kts | 311° |
| 2026-05-05 12:20 | 15.57165 | 104.41451 | 11499 ft | 209 kts | 310° |
| 2026-05-05 12:21 | 15.58112 | 104.40301 | 11695 ft | 211 kts | 311° |
| 2026-05-05 12:21 | 15.59095 | 104.39140 | 11783 ft | 218 kts | 311° |
| 2026-05-05 12:21 | 15.60114 | 104.37943 | 11828 ft | 225 kts | 311° |
| 2026-05-05 12:21 | 15.61172 | 104.36702 | 11848 ft | 233 kts | 311° |
| 2026-05-05 12:22 | 15.62260 | 104.35424 | 11857 ft | 240 kts | 311° |
| 2026-05-05 12:22 | 15.63376 | 104.34114 | 11867 ft | 245 kts | 311° |
| 2026-05-05 12:22 | 15.64517 | 104.32773 | 11866 ft | 250 kts | 311° |
| 2026-05-05 12:22 | 15.65677 | 104.31411 | 11863 ft | 254 kts | 311° |
| 2026-05-05 12:23 | 15.66854 | 104.30028 | 11865 ft | 257 kts | 311° |
| 2026-05-05 12:23 | 15.68041 | 104.28633 | 11868 ft | 259 kts | 311° |
| 2026-05-05 12:23 | 15.69238 | 104.27225 | 11871 ft | 261 kts | 311° |
| 2026-05-05 12:23 | 15.70443 | 104.25808 | 11866 ft | 263 kts | 311° |
| 2026-05-05 12:24 | 15.71653 | 104.24386 | 11869 ft | 264 kts | 311° |
| 2026-05-05 12:24 | 15.72869 | 104.22956 | 11861 ft | 264 kts | 311° |
| 2026-05-05 12:24 | 15.74086 | 104.21524 | 11870 ft | 265 kts | 311° |
| 2026-05-05 12:24 | 15.75307 | 104.20087 | 11866 ft | 266 kts | 311° |
| 2026-05-05 12:25 | 15.76530 | 104.18650 | 11863 ft | 266 kts | 311° |
| 2026-05-05 12:25 | 15.77756 | 104.17207 | 11863 ft | 266 kts | 311° |
| 2026-05-05 12:25 | 15.78980 | 104.15767 | 11870 ft | 267 kts | 311° |
| 2026-05-05 12:25 | 15.80206 | 104.14322 | 11869 ft | 267 kts | 311° |
| 2026-05-05 12:26 | 15.81432 | 104.12878 | 11867 ft | 267 kts | 311° |
| 2026-05-05 12:26 | 15.82659 | 104.11428 | 11866 ft | 267 kts | 311° |
| 2026-05-05 12:26 | 15.83890 | 104.09983 | 11869 ft | 267 kts | 311° |
| 2026-05-05 12:26 | 15.85114 | 104.08541 | 11862 ft | 267 kts | 311° |
| 2026-05-05 12:27 | 15.86342 | 104.07091 | 11857 ft | 267 kts | 311° |
| 2026-05-05 12:27 | 15.87569 | 104.05647 | 11860 ft | 267 kts | 311° |
| 2026-05-05 12:27 | 15.88797 | 104.04200 | 11862 ft | 266 kts | 311° |
| 2026-05-05 12:27 | 15.90017 | 104.02755 | 11867 ft | 266 kts | 311° |
| 2026-05-05 12:28 | 15.90830 | 104.01799 | 11872 ft | 266 kts | 311° |
| 2026-05-05 12:28 | 15.92469 | 103.99866 | 11864 ft | 266 kts | 310° |
| 2026-05-05 12:28 | 15.93277 | 103.98908 | 11866 ft | 266 kts | 311° |
| 2026-05-05 12:28 | 15.94503 | 103.97465 | 11875 ft | 266 kts | 310° |
| 2026-05-05 12:29 | 15.95744 | 103.96000 | 11876 ft | 266 kts | 311° |
| 2026-05-05 12:29 | 15.97362 | 103.94088 | 11877 ft | 266 kts | 311° |
| 2026-05-05 12:29 | 15.98174 | 103.93128 | 11871 ft | 266 kts | 310° |
| 2026-05-05 12:29 | 15.99393 | 103.91687 | 11881 ft | 265 kts | 310° |
| 2026-05-05 12:30 | 16.00608 | 103.90251 | 11880 ft | 264 kts | 311° |
| 2026-05-05 12:30 | 16.01817 | 103.88821 | 11875 ft | 263 kts | 311° |
| 2026-05-05 12:30 | 16.03023 | 103.87396 | 11882 ft | 262 kts | 311° |
| 2026-05-05 12:30 | 16.04226 | 103.85973 | 11879 ft | 262 kts | 311° |
| 2026-05-05 12:31 | 16.05430 | 103.84551 | 11889 ft | 261 kts | 311° |
| 2026-05-05 12:31 | 16.06629 | 103.83133 | 11875 ft | 261 kts | 311° |
| 2026-05-05 12:31 | 16.07828 | 103.81714 | 11886 ft | 261 kts | 311° |
| 2026-05-05 12:31 | 16.09024 | 103.80299 | 11886 ft | 261 kts | 310° |
| 2026-05-05 12:32 | 16.10219 | 103.78881 | 11888 ft | 260 kts | 310° |
| 2026-05-05 12:32 | 16.11413 | 103.77461 | 11880 ft | 260 kts | 309° |
| 2026-05-05 12:32 | 16.12319 | 103.75860 | 11886 ft | 256 kts | 291° |
| 2026-05-05 12:32 | 16.12909 | 103.74113 | 11889 ft | 256 kts | 287° |
| 2026-05-05 12:33 | 16.13456 | 103.72349 | 11888 ft | 256 kts | 287° |
| 2026-05-05 12:33 | 16.14034 | 103.70593 | 11886 ft | 257 kts | 289° |
| 2026-05-05 12:33 | 16.14656 | 103.68849 | 11877 ft | 257 kts | 290° |
| 2026-05-05 12:33 | 16.15297 | 103.67110 | 11887 ft | 258 kts | 290° |
| 2026-05-05 12:34 | 16.15931 | 103.65378 | 11881 ft | 258 kts | 290° |
| 2026-05-05 12:34 | 16.16567 | 103.63626 | 11884 ft | 258 kts | 290° |
| 2026-05-05 12:34 | 16.17200 | 103.61879 | 11884 ft | 258 kts | 290° |
| 2026-05-05 12:34 | 16.17833 | 103.60133 | 11881 ft | 258 kts | 290° |
| 2026-05-05 12:35 | 16.18464 | 103.58384 | 11875 ft | 258 kts | 290° |
| 2026-05-05 12:35 | 16.19096 | 103.56637 | 11873 ft | 258 kts | 290° |
| 2026-05-05 12:35 | 16.19726 | 103.54893 | 11874 ft | 258 kts | 290° |
| 2026-05-05 12:35 | 16.20357 | 103.53143 | 11878 ft | 258 kts | 290° |
| 2026-05-05 12:36 | 16.20987 | 103.51397 | 11880 ft | 258 kts | 290° |
| 2026-05-05 12:36 | 16.21619 | 103.49650 | 11873 ft | 258 kts | 290° |
| 2026-05-05 12:36 | 16.22250 | 103.47901 | 11869 ft | 258 kts | 290° |
| 2026-05-05 12:36 | 16.22879 | 103.46160 | 11872 ft | 258 kts | 290° |
| 2026-05-05 12:37 | 16.23509 | 103.44411 | 11874 ft | 258 kts | 290° |
| 2026-05-05 12:37 | 16.24137 | 103.42668 | 11868 ft | 258 kts | 290° |
| 2026-05-05 12:37 | 16.24766 | 103.40924 | 11868 ft | 257 kts | 290° |
| 2026-05-05 12:37 | 16.25394 | 103.39179 | 11876 ft | 257 kts | 290° |
| 2026-05-05 12:38 | 16.26022 | 103.37431 | 11868 ft | 257 kts | 290° |
| 2026-05-05 12:38 | 16.26650 | 103.35688 | 11867 ft | 257 kts | 290° |
| 2026-05-05 12:38 | 16.27278 | 103.33946 | 11876 ft | 258 kts | 290° |
| 2026-05-05 12:38 | 16.27903 | 103.32197 | 11869 ft | 257 kts | 290° |
| 2026-05-05 12:39 | 16.28527 | 103.30453 | 11871 ft | 257 kts | 290° |
| 2026-05-05 12:39 | 16.29148 | 103.28708 | 11880 ft | 256 kts | 288° |
| 2026-05-05 12:39 | 16.29387 | 103.26891 | 11876 ft | 254 kts | 270° |
| 2026-05-05 12:39 | 16.29334 | 103.25059 | 11881 ft | 253 kts | 267° |
| 2026-05-05 12:40 | 16.29240 | 103.23225 | 11873 ft | 254 kts | 267° |
| 2026-05-05 12:40 | 16.29176 | 103.21386 | 11884 ft | 254 kts | 269° |
| 2026-05-05 12:40 | 16.29161 | 103.19547 | 11883 ft | 255 kts | 270° |
| 2026-05-05 12:40 | 16.29163 | 103.17700 | 11882 ft | 255 kts | 269° |
| 2026-05-05 12:41 | 16.29154 | 103.15858 | 11882 ft | 255 kts | 269° |
| 2026-05-05 12:41 | 16.29145 | 103.13981 | 11887 ft | 256 kts | 269° |
| 2026-05-05 12:41 | 16.29134 | 103.12131 | 11887 ft | 256 kts | 269° |
| 2026-05-05 12:41 | 16.29123 | 103.10279 | 11848 ft | 257 kts | 269° |
| 2026-05-05 12:42 | 16.29112 | 103.08407 | 11777 ft | 260 kts | 269° |
| 2026-05-05 12:42 | 16.29101 | 103.06519 | 11708 ft | 262 kts | 269° |
| 2026-05-05 12:42 | 16.29090 | 103.04617 | 11638 ft | 263 kts | 269° |
| 2026-05-05 12:42 | 16.29078 | 103.02687 | 11568 ft | 265 kts | 269° |
| 2026-05-05 12:43 | 16.29067 | 103.00767 | 11497 ft | 265 kts | 269° |
| 2026-05-05 12:43 | 16.29055 | 102.98848 | 11305 ft | 262 kts | 270° |
| 2026-05-05 12:43 | 16.29056 | 102.97032 | 10949 ft | 240 kts | 270° |
| 2026-05-05 12:43 | 16.29058 | 102.95359 | 10597 ft | 223 kts | 269° |
| 2026-05-05 12:44 | 16.29050 | 102.93739 | 10148 ft | 226 kts | 269° |
| 2026-05-05 12:44 | 16.29037 | 102.92090 | 9688 ft | 230 kts | 269° |
| 2026-05-05 12:44 | 16.29022 | 102.90414 | 9187 ft | 233 kts | 269° |
| 2026-05-05 12:44 | 16.29005 | 102.88723 | 8691 ft | 235 kts | 269° |
| 2026-05-05 12:45 | 16.28980 | 102.87015 | 8206 ft | 236 kts | 269° |
| 2026-05-05 12:45 | 16.28963 | 102.85307 | 7728 ft | 237 kts | 269° |
| 2026-05-05 12:45 | 16.28950 | 102.83590 | 7256 ft | 237 kts | 269° |
| 2026-05-05 12:45 | 16.28938 | 102.81896 | 6787 ft | 228 kts | 269° |
| 2026-05-05 12:46 | 16.29210 | 102.80341 | 6223 ft | 218 kts | 298° |
| 2026-05-05 12:46 | 16.30263 | 102.79262 | 5645 ft | 211 kts | 325° |
| 2026-05-05 12:46 | 16.31469 | 102.78394 | 5064 ft | 211 kts | 325° |
| 2026-05-05 12:46 | 16.32670 | 102.77523 | 4487 ft | 210 kts | 324° |
| 2026-05-05 12:47 | 16.33862 | 102.76644 | 3904 ft | 209 kts | 324° |
| 2026-05-05 12:47 | 16.35042 | 102.75765 | 3334 ft | 208 kts | 325° |
| 2026-05-05 12:47 | 16.36216 | 102.74894 | 2759 ft | 207 kts | 325° |
| 2026-05-05 12:47 | 16.37339 | 102.74057 | 2486 ft | 190 kts | 325° |
| 2026-05-05 12:48 | 16.38451 | 102.73585 | 2335 ft | 162 kts | 4° |
| 2026-05-05 12:48 | 16.39461 | 102.73863 | 2263 ft | 142 kts | 20° |
| 2026-05-05 12:48 | 16.40364 | 102.74240 | 2092 ft | 135 kts | 26° |
| 2026-05-05 12:48 | 16.41153 | 102.74663 | 1892 ft | 122 kts | 31° |
| 2026-05-05 12:49 | 16.41845 | 102.75097 | 1691 ft | 114 kts | 33° |
| 2026-05-05 12:49 | 16.42508 | 102.75564 | 1522 ft | 117 kts | 35° |
| 2026-05-05 12:49 | 16.43192 | 102.76059 | 1310 ft | 119 kts | 34° |
| 2026-05-05 12:49 | 16.43903 | 102.76526 | 1077 ft | 120 kts | 31° |
| 2026-05-05 12:50 | 16.44597 | 102.76979 | 940 ft | 115 kts | 32° |
| 2026-05-05 12:50 | 16.45260 | 102.77427 | 791 ft | 115 kts | 32° |
| 2026-05-05 12:50 | 16.45927 | 102.77872 | 680 ft | 110 kts | 32° |
| 2026-05-05 12:50 | 16.46282 | 102.78109 | 673 ft | 35 kts | 34° |
| 2026-05-05 12:51 | 16.46436 | 102.78220 | 672 ft | 15 kts | 46° |
| 2026-05-05 12:51 | 16.46424 | 102.78281 | 674 ft | 9 kts | 124° |
| 2026-05-05 12:51 | 16.46385 | 102.78349 | 670 ft | 13 kts | 114° |
| 2026-05-05 12:51 | 16.46409 | 102.78401 | 670 ft | 6 kts | 32° |
| 2026-05-05 12:52 | 16.46436 | 102.78418 | 671 ft | 3 kts | 33° |
| 2026-05-05 12:52 | 16.46456 | 102.78429 | 671 ft | 4 kts | 22° |
| 2026-05-05 12:52 | 16.46473 | 102.78442 | 671 ft | 12 kts | 39° |
| 2026-05-05 12:52 | 16.46546 | 102.78496 | 672 ft | 12 kts | 31° |
| 2026-05-05 12:53 | 16.46619 | 102.78541 | 672 ft | 12 kts | 31° |
| 2026-05-05 12:53 | 16.46629 | 102.78613 | 672 ft | 11 kts | 121° |
| 2026-05-05 12:53 | 16.46608 | 102.78648 | 672 ft | 2 kts | 122° |
| 2026-05-05 12:53 | 16.46605 | 102.78652 | 672 ft | 0 kts | 122° |